createdAt,value
2017-12-04T00:01:26.018Z,87.03
2017-12-04T00:03:53.361Z,87.09
2017-12-04T00:06:19.820Z,87.37
2017-12-04T00:08:46.273Z,87.52
2017-12-04T00:11:12.791Z,87.81
2017-12-04T00:13:39.225Z,88.06
2017-12-04T00:16:05.662Z,88.07
2017-12-04T00:18:31.992Z,88.41
2017-12-04T00:20:59.331Z,88.35
2017-12-04T00:23:25.770Z,88.01
2017-12-04T00:25:52.116Z,88.06
2017-12-04T00:28:18.448Z,87.92
2017-12-04T00:30:44.883Z,87.79
2017-12-04T00:33:11.319Z,87.83
2017-12-04T00:35:37.648Z,87.69
2017-12-04T00:38:05.064Z,87.36
2017-12-04T00:40:31.468Z,86.79
2017-12-04T00:42:57.832Z,86.89
2017-12-04T00:45:24.309Z,87.10
2017-12-04T00:47:50.744Z,86.97
2017-12-04T00:50:17.178Z,86.78
2017-12-04T00:52:43.562Z,86.85
2017-12-04T00:55:10.765Z,87.25
2017-12-04T00:57:37.199Z,87.14
2017-12-04T01:00:03.634Z,87.50
2017-12-04T01:02:30.003Z,87.96
2017-12-04T01:04:56.338Z,88.03
2017-12-04T01:07:22.804Z,88.20
2017-12-04T01:09:49.245Z,88.04
2017-12-04T01:12:16.423Z,87.87
2017-12-04T01:14:42.856Z,87.85
2017-12-04T01:17:09.295Z,87.58
2017-12-04T01:19:35.724Z,86.69
2017-12-04T01:22:02.160Z,86.71
2017-12-04T01:24:28.696Z,86.71
2017-12-04T01:26:55.131Z,86.40
2017-12-04T01:29:22.283Z,85.92
2017-12-04T01:31:48.721Z,86.09
2017-12-04T01:34:15.174Z,86.44
2017-12-04T01:36:41.586Z,86.58
2017-12-04T01:39:08.021Z,86.97
2017-12-04T01:41:34.455Z,86.75
2017-12-04T01:44:00.825Z,87.00
2017-12-04T01:46:28.043Z,86.54
2017-12-04T01:48:54.477Z,87.05
2017-12-04T01:51:20.912Z,86.18
2017-12-04T01:53:47.348Z,86.29
2017-12-04T01:56:13.781Z,86.16
2017-12-04T01:58:40.146Z,86.28
2017-12-04T02:01:06.503Z,86.62
2017-12-04T02:03:33.798Z,86.38
2017-12-04T02:06:00.133Z,85.95
2017-12-04T02:08:26.568Z,84.84
2017-12-04T02:10:53.002Z,85.07
2017-12-04T02:13:19.370Z,85.76
2017-12-04T02:15:45.682Z,86.04
2017-12-04T02:18:12.001Z,86.22
2017-12-04T02:20:39.286Z,86.21
2017-12-04T02:23:05.687Z,85.58
2017-12-04T02:25:31.994Z,85.48
2017-12-04T02:27:58.456Z,85.96
2017-12-04T02:30:24.889Z,85.89
2017-12-04T02:32:51.323Z,86.12
2017-12-04T02:35:17.760Z,86.42
2017-12-04T02:37:44.813Z,86.75
2017-12-04T02:40:11.241Z,86.59
2017-12-04T02:42:37.676Z,86.24
2017-12-04T02:45:04.111Z,86.07
2017-12-04T02:47:30.564Z,86.33
2017-12-04T02:49:56.979Z,86.83
2017-12-04T02:52:23.358Z,86.62
2017-12-04T02:54:50.566Z,86.95
2017-12-04T02:57:16.934Z,86.93
2017-12-04T02:59:43.334Z,87.11
2017-12-04T03:02:09.665Z,87.35
2017-12-04T03:04:36.099Z,87.61
2017-12-04T03:07:02.534Z,87.62
2017-12-04T03:09:28.968Z,87.64
2017-12-04T03:11:56.120Z,87.46
2017-12-04T03:14:22.556Z,87.44
2017-12-04T03:16:48.985Z,87.74
2017-12-04T03:19:15.353Z,87.17
2017-12-04T03:21:41.790Z,86.97
2017-12-04T03:24:08.191Z,86.85
2017-12-04T03:26:34.625Z,86.07
2017-12-04T03:29:01.868Z,86.57
2017-12-04T03:31:28.211Z,87.25
2017-12-04T03:33:54.645Z,86.91
2017-12-04T03:36:21.081Z,86.83
2017-12-04T03:38:47.515Z,86.45
2017-12-04T03:41:13.882Z,86.89
2017-12-04T03:43:40.282Z,87.31
2017-12-04T03:46:07.513Z,87.21
2017-12-04T03:48:33.871Z,87.43
2017-12-04T03:51:00.237Z,87.41
2017-12-04T03:53:26.636Z,87.60
2017-12-04T03:55:53.069Z,87.02
2017-12-04T03:58:19.506Z,86.86
2017-12-04T04:00:45.939Z,87.15
2017-12-04T04:03:12.990Z,87.77
2017-12-04T04:05:39.353Z,88.22
2017-12-04T04:08:05.767Z,88.45
2017-12-04T04:10:32.189Z,88.42
2017-12-04T04:12:58.643Z,87.27
2017-12-04T04:15:25.057Z,87.43
2017-12-04T04:17:51.588Z,87.52
2017-12-04T04:20:18.644Z,86.63
2017-12-04T04:22:45.185Z,86.57
2017-12-04T04:25:11.616Z,86.86
2017-12-04T04:27:38.050Z,87.19
2017-12-04T04:30:04.486Z,86.41
2017-12-04T04:32:31.022Z,87.02
2017-12-04T04:34:57.369Z,87.15
2017-12-04T04:37:24.608Z,87.49
2017-12-04T04:39:50.938Z,87.64
2017-12-04T04:42:17.377Z,88.13
2017-12-04T04:44:43.812Z,87.67
2017-12-04T04:47:10.178Z,87.72
2017-12-04T04:49:36.595Z,88.02
2017-12-04T04:52:03.019Z,88.03
2017-12-04T04:54:30.265Z,88.16
2017-12-04T04:56:56.802Z,88.43
2017-12-04T04:59:23.237Z,86.15
2017-12-04T05:01:49.671Z,83.86
2017-12-04T05:04:16.105Z,83.20
2017-12-04T05:06:42.541Z,83.86
2017-12-04T05:09:09.113Z,84.93
2017-12-04T05:11:36.126Z,86.00
2017-12-04T05:14:02.561Z,86.57
2017-12-04T05:16:29.000Z,87.03
2017-12-04T05:18:55.329Z,87.68
2017-12-04T05:21:21.762Z,87.82
2017-12-04T05:23:48.197Z,88.26
2017-12-04T05:26:14.631Z,88.55
2017-12-04T05:28:41.784Z,88.64
2017-12-04T05:31:08.218Z,87.49
2017-12-04T05:33:34.653Z,87.19
2017-12-04T05:36:00.984Z,87.29
2017-12-04T05:38:27.317Z,87.92
2017-12-04T05:40:53.737Z,88.20
2017-12-04T05:43:20.117Z,88.06
2017-12-04T05:45:47.378Z,87.47
2017-12-04T05:48:13.773Z,87.39
2017-12-04T05:50:40.206Z,87.68
2017-12-04T05:53:06.744Z,87.94
2017-12-04T05:55:33.178Z,87.57
2017-12-04T05:57:59.613Z,87.38
2017-12-04T06:00:26.049Z,87.03
2017-12-04T06:02:53.100Z,86.84
2017-12-04T06:05:19.841Z,87.22
2017-12-04T06:07:46.216Z,87.06
2017-12-04T06:10:12.605Z,87.63
2017-12-04T06:12:39.247Z,87.70
2017-12-04T06:15:06.439Z,86.98
2017-12-04T06:17:32.851Z,86.79
2017-12-04T06:19:59.267Z,86.71
2017-12-04T06:22:25.680Z,87.74
2017-12-04T06:24:52.530Z,88.08
2017-12-04T06:27:19.842Z,87.81
2017-12-04T06:29:46.302Z,87.87
2017-12-04T06:32:12.744Z,88.06
2017-12-04T06:34:39.205Z,87.01
2017-12-04T06:37:05.660Z,87.10
2017-12-04T06:39:32.073Z,86.54
2017-12-04T06:41:58.510Z,86.09
2017-12-04T06:44:25.028Z,86.54
2017-12-04T06:46:51.481Z,86.55
2017-12-04T06:49:17.916Z,86.24
2017-12-04T06:51:44.757Z,85.48
2017-12-04T06:54:11.090Z,85.83
2017-12-04T06:56:37.525Z,85.94
2017-12-04T06:59:03.901Z,86.45
2017-12-04T07:01:31.202Z,86.46
2017-12-04T07:03:57.544Z,86.02
2017-12-04T07:06:24.092Z,86.08
2017-12-04T07:08:50.516Z,85.59
2017-12-04T07:11:16.952Z,85.72
2017-12-04T07:13:44.205Z,84.84
2017-12-04T07:16:10.727Z,84.23
2017-12-04T07:18:37.178Z,84.41
2017-12-04T07:21:03.611Z,84.39
2017-12-04T07:23:29.947Z,83.92
2017-12-04T07:25:56.481Z,84.50
2017-12-04T07:28:22.853Z,84.52
2017-12-04T07:30:49.555Z,84.81
2017-12-04T07:33:15.994Z,84.04
2017-12-04T07:35:42.536Z,83.68
2017-12-04T07:38:08.906Z,83.57
2017-12-04T07:40:35.294Z,83.55
2017-12-04T07:43:01.712Z,83.27
2017-12-04T07:45:28.130Z,83.42
2017-12-04T07:47:54.571Z,83.79
2017-12-04T07:50:21.134Z,83.20
2017-12-04T07:52:47.569Z,82.94
2017-12-04T07:55:14.108Z,83.06
2017-12-04T07:57:40.438Z,82.97
2017-12-04T08:00:06.872Z,82.47
2017-12-04T08:02:33.307Z,81.01
2017-12-04T08:04:59.741Z,82.29
2017-12-04T08:07:26.074Z,81.67
2017-12-04T08:09:52.508Z,82.59
2017-12-04T08:12:18.943Z,82.82
2017-12-04T08:14:45.377Z,82.56
2017-12-04T08:17:11.973Z,82.19
2017-12-04T08:19:38.451Z,81.78
2017-12-04T08:22:04.886Z,81.65
2017-12-04T08:24:31.425Z,81.71
2017-12-04T08:26:57.860Z,81.25
2017-12-04T08:29:24.230Z,81.51
2017-12-04T08:31:50.932Z,80.08
2017-12-04T08:34:17.374Z,79.65
2017-12-04T08:36:43.903Z,78.88
2017-12-04T08:39:10.338Z,78.74
2017-12-04T08:41:37.172Z,79.36
2017-12-04T08:44:03.619Z,79.52
2017-12-04T08:46:30.052Z,79.46
2017-12-04T08:48:56.573Z,78.77
2017-12-04T08:51:23.019Z,78.20
2017-12-04T08:53:49.394Z,77.68
2017-12-04T08:56:15.994Z,78.17
2017-12-04T08:58:42.304Z,78.65
2017-12-04T09:01:08.761Z,77.61
2017-12-04T09:03:35.196Z,77.04
2017-12-04T09:06:01.718Z,77.21
2017-12-04T09:08:28.118Z,77.18
2017-12-04T09:10:54.576Z,77.59
2017-12-04T09:13:21.119Z,76.93
2017-12-04T09:15:47.676Z,78.05
2017-12-04T09:18:14.111Z,78.28
2017-12-04T09:20:40.546Z,77.74
2017-12-04T09:23:07.021Z,78.38
2017-12-04T09:25:33.458Z,77.98
2017-12-04T09:27:59.952Z,78.43
2017-12-04T09:30:26.386Z,78.38
2017-12-04T09:32:52.759Z,79.82
2017-12-04T09:35:19.223Z,78.69
2017-12-04T09:37:45.665Z,79.38
2017-12-04T09:40:12.125Z,79.76
2017-12-04T09:42:38.459Z,79.86
2017-12-04T09:45:04.994Z,79.43
2017-12-04T09:47:31.366Z,79.01
2017-12-04T09:49:57.732Z,79.18
2017-12-04T09:52:24.605Z,79.54
2017-12-04T09:54:51.040Z,77.82
2017-12-04T09:57:17.409Z,77.29
2017-12-04T09:59:43.812Z,77.60
2017-12-04T10:02:10.246Z,77.22
2017-12-04T10:04:37.085Z,77.49
2017-12-04T10:07:03.929Z,77.89
2017-12-04T10:09:30.367Z,77.72
2017-12-04T10:11:57.208Z,77.35
2017-12-04T10:14:23.748Z,77.35
2017-12-04T10:16:50.592Z,75.42
2017-12-04T10:19:17.024Z,76.14
2017-12-04T10:21:43.405Z,76.73
2017-12-04T10:24:09.722Z,76.85
2017-12-04T10:26:36.225Z,77.44
2017-12-04T10:29:02.661Z,75.40
2017-12-04T10:31:29.098Z,75.54
2017-12-04T10:33:55.531Z,74.68
2017-12-04T10:36:22.066Z,74.04
2017-12-04T10:38:48.854Z,74.60
2017-12-04T10:41:15.335Z,75.44
2017-12-04T10:43:41.883Z,73.55
2017-12-04T10:46:08.317Z,73.06
2017-12-04T10:48:34.752Z,70.79
2017-12-04T10:51:01.186Z,72.86
2017-12-04T10:53:27.620Z,72.31
2017-12-04T10:55:54.161Z,68.57
2017-12-04T10:58:20.595Z,69.51
2017-12-04T11:00:47.234Z,68.67
2017-12-04T11:03:13.667Z,69.74
2017-12-04T11:05:40.101Z,68.26
2017-12-04T11:08:06.535Z,68.34
2017-12-04T11:10:32.969Z,68.90
2017-12-04T11:12:59.342Z,70.06
2017-12-04T11:15:25.740Z,71.18
2017-12-04T11:17:52.109Z,71.40
2017-12-04T11:20:19.124Z,72.63
2017-12-04T11:22:45.553Z,73.79
2017-12-04T11:25:11.988Z,73.95
2017-12-04T11:27:38.532Z,74.14
2017-12-04T11:30:04.914Z,75.37
2017-12-04T11:32:31.370Z,75.17
2017-12-04T11:34:57.930Z,76.32
2017-12-04T11:37:24.364Z,75.39
2017-12-04T11:39:50.800Z,74.09
2017-12-04T11:42:17.235Z,71.50
2017-12-04T11:44:43.975Z,72.04
2017-12-04T11:47:10.412Z,71.82
2017-12-04T11:49:36.866Z,72.08
2017-12-04T11:52:03.286Z,72.72
2017-12-04T11:54:29.661Z,72.85
2017-12-04T11:56:56.167Z,73.21
2017-12-04T11:59:22.778Z,72.17
2017-12-04T12:01:49.231Z,71.21
2017-12-04T12:04:16.478Z,72.44
2017-12-04T12:06:43.008Z,71.20
2017-12-04T12:09:09.381Z,71.79
2017-12-04T12:11:35.780Z,72.45
2017-12-04T12:14:02.112Z,72.64
2017-12-04T12:16:28.855Z,72.93
2017-12-04T12:18:55.801Z,72.37
2017-12-04T12:21:22.632Z,72.62
2017-12-04T12:23:49.081Z,73.35
2017-12-04T12:26:15.618Z,73.29
2017-12-04T12:28:42.052Z,71.95
2017-12-04T12:31:08.692Z,71.99
2017-12-04T12:33:35.080Z,71.34
2017-12-04T12:36:01.561Z,71.85
2017-12-04T12:38:28.404Z,72.23
2017-12-04T12:40:54.837Z,72.46
2017-12-04T12:43:21.273Z,72.50
2017-12-04T12:45:48.017Z,72.84
2017-12-04T12:48:14.689Z,72.54
2017-12-04T12:50:41.088Z,72.42
2017-12-04T12:53:07.587Z,71.99
2017-12-04T12:55:34.265Z,71.79
2017-12-04T12:58:00.701Z,72.12
2017-12-04T13:00:27.346Z,72.39
2017-12-04T13:02:54.191Z,71.75
2017-12-04T13:05:20.724Z,72.62
2017-12-04T13:07:47.159Z,72.86
2017-12-04T13:10:14.071Z,73.04
2017-12-04T13:12:40.537Z,71.20
2017-12-04T13:15:07.011Z,70.37
2017-12-04T13:17:34.123Z,69.78
2017-12-04T13:20:01.169Z,70.27
2017-12-04T13:22:28.016Z,70.12
2017-12-04T13:24:54.509Z,69.98
2017-12-04T13:27:20.987Z,69.57
2017-12-04T13:29:47.386Z,69.87
2017-12-04T13:32:14.472Z,69.80
2017-12-04T13:34:40.868Z,70.14
2017-12-04T13:37:07.312Z,69.86
2017-12-04T13:39:34.288Z,69.54
2017-12-04T13:42:00.794Z,69.59
2017-12-04T13:44:27.260Z,70.45
2017-12-04T13:46:53.800Z,70.90
2017-12-04T13:49:20.434Z,71.49
2017-12-04T13:51:46.916Z,70.90
2017-12-04T13:54:13.410Z,71.33
2017-12-04T13:56:40.047Z,71.86
2017-12-04T13:59:06.481Z,72.01
2017-12-04T14:01:32.915Z,71.98
2017-12-04T14:03:59.862Z,72.47
2017-12-04T14:06:26.537Z,73.17
2017-12-04T14:08:52.936Z,72.64
2017-12-04T14:11:19.372Z,73.24
2017-12-04T14:13:46.131Z,73.59
2017-12-04T14:16:12.649Z,73.36
2017-12-04T14:18:39.083Z,73.14
2017-12-04T14:21:05.518Z,73.36
2017-12-04T14:23:31.957Z,74.13
2017-12-04T14:25:58.490Z,74.35
2017-12-04T14:28:24.925Z,73.85
2017-12-04T14:30:51.565Z,74.03
2017-12-04T14:33:17.998Z,72.53
2017-12-04T14:35:44.518Z,73.40
2017-12-04T14:38:11.380Z,73.65
2017-12-04T14:40:37.814Z,73.87
2017-12-04T14:43:04.249Z,73.92
2017-12-04T14:50:34.099Z,73.01
2017-12-04T14:53:00.739Z,72.38
2017-12-04T14:55:27.299Z,73.14
2017-12-04T14:57:53.710Z,73.30
2017-12-04T15:00:20.043Z,73.22
2017-12-04T15:02:46.927Z,72.88
2017-12-04T15:05:13.359Z,72.79
2017-12-04T15:07:39.690Z,73.18
2017-12-04T15:10:06.479Z,73.11
2017-12-04T15:12:32.922Z,73.12
2017-12-04T15:14:59.367Z,73.71
2017-12-04T15:17:26.206Z,73.27
2017-12-04T15:19:52.645Z,73.18
2017-12-04T15:22:19.080Z,73.55
2017-12-04T15:24:45.807Z,73.90
2017-12-04T15:27:12.258Z,74.06
2017-12-04T15:29:38.736Z,73.83
2017-12-04T15:32:05.127Z,74.45
2017-12-04T15:34:32.095Z,73.20
2017-12-04T15:36:58.694Z,73.58
2017-12-04T15:39:25.148Z,74.22
2017-12-04T15:41:51.582Z,74.25
2017-12-04T15:44:18.018Z,73.73
2017-12-04T15:46:44.455Z,74.13
2017-12-04T15:49:10.786Z,74.28
2017-12-04T15:51:37.154Z,74.90
2017-12-04T15:54:03.654Z,74.59
2017-12-04T15:56:29.962Z,74.76
2017-12-04T15:58:56.419Z,75.14
2017-12-04T16:01:22.854Z,74.87
2017-12-04T16:03:49.325Z,74.61
2017-12-04T16:06:15.781Z,74.42
2017-12-04T16:08:42.114Z,74.06
2017-12-04T16:11:08.582Z,74.35
2017-12-04T16:13:35.028Z,74.36
2017-12-04T16:16:01.358Z,74.90
2017-12-04T16:18:27.896Z,74.20
2017-12-04T16:20:54.330Z,73.58
2017-12-04T16:23:20.764Z,73.40
2017-12-04T16:25:47.199Z,73.57
2017-12-04T16:28:13.531Z,73.58
2017-12-04T16:30:39.965Z,73.42
2017-12-04T16:33:06.386Z,72.93
2017-12-04T16:35:32.851Z,72.94
2017-12-04T16:37:59.242Z,73.58
2017-12-04T16:40:25.709Z,73.85
2017-12-04T16:42:52.035Z,73.97
2017-12-04T16:45:18.471Z,73.30
2017-12-04T16:47:44.857Z,73.66
2017-12-04T16:50:12.057Z,73.03
2017-12-04T16:52:38.471Z,72.92
2017-12-04T16:55:04.824Z,72.67
2017-12-04T16:57:31.259Z,73.11
2017-12-04T16:59:57.795Z,72.86
2017-12-04T17:02:24.166Z,73.24
2017-12-04T17:04:50.566Z,73.29
2017-12-04T17:07:17.796Z,73.54
2017-12-04T17:09:44.238Z,73.75
2017-12-04T17:12:10.685Z,73.15
2017-12-04T17:14:37.057Z,73.74
2017-12-04T17:17:03.394Z,73.01
2017-12-04T17:19:29.777Z,73.44
2017-12-04T17:21:56.219Z,73.59
2017-12-04T17:24:23.373Z,72.71
2017-12-04T17:26:49.807Z,73.18
2017-12-04T17:29:16.137Z,72.87
2017-12-04T17:31:42.468Z,72.16
2017-12-04T17:34:08.886Z,72.31
2017-12-04T17:36:35.339Z,71.40
2017-12-04T17:39:01.778Z,71.75
2017-12-04T17:41:28.924Z,71.77
2017-12-04T17:43:55.360Z,71.67
2017-12-04T17:46:21.794Z,71.66
2017-12-04T17:48:48.210Z,71.68
2017-12-04T17:51:14.653Z,71.27
2017-12-04T17:53:41.097Z,71.56
2017-12-04T17:56:07.531Z,71.20
2017-12-04T17:58:34.580Z,70.61
2017-12-04T18:01:00.951Z,71.54
2017-12-04T18:03:27.469Z,70.87
2017-12-04T18:05:53.886Z,71.02
2017-12-04T18:08:20.340Z,69.36
2017-12-04T18:10:46.754Z,69.23
2017-12-04T18:13:13.208Z,67.89
2017-12-04T18:15:40.340Z,67.50
2017-12-04T18:18:06.774Z,67.29
2017-12-04T18:20:33.209Z,66.80
2017-12-04T18:22:59.662Z,67.50
2017-12-04T18:25:26.080Z,67.71
2017-12-04T18:27:52.412Z,67.41
2017-12-04T18:30:18.742Z,67.33
2017-12-04T18:32:45.936Z,67.43
2017-12-04T18:35:12.431Z,66.77
2017-12-04T18:37:38.763Z,64.93
2017-12-04T18:40:05.199Z,63.30
2017-12-04T18:42:31.631Z,63.13
2017-12-04T18:44:58.068Z,63.25
2017-12-04T18:47:24.493Z,63.42
2017-12-04T18:49:51.756Z,64.63
2017-12-04T18:52:18.192Z,64.11
2017-12-04T18:54:44.625Z,64.91
2017-12-04T18:57:10.993Z,65.55
2017-12-04T18:59:37.326Z,65.56
2017-12-04T19:02:03.694Z,65.41
2017-12-04T19:04:30.058Z,65.04
2017-12-04T19:06:57.346Z,64.75
2017-12-04T19:09:23.745Z,64.81
2017-12-04T19:11:50.179Z,64.88
2017-12-04T19:14:16.614Z,64.53
2017-12-04T19:16:43.048Z,64.19
2017-12-04T19:19:09.482Z,64.17
2017-12-04T19:21:35.919Z,63.42
2017-12-04T19:24:03.047Z,62.58
2017-12-04T19:26:29.489Z,62.37
2017-12-04T19:28:55.938Z,62.82
2017-12-04T19:31:22.375Z,62.99
2017-12-04T19:33:48.790Z,62.99
2017-12-04T19:36:15.140Z,62.71
2017-12-04T19:38:41.573Z,62.69
2017-12-04T19:41:08.726Z,63.71
2017-12-04T19:43:35.168Z,62.94
2017-12-04T19:46:01.595Z,63.70
2017-12-04T19:48:27.926Z,62.58
2017-12-04T19:50:54.361Z,63.27
2017-12-04T19:53:20.693Z,63.40
2017-12-04T19:55:47.128Z,63.26
2017-12-04T19:58:14.279Z,63.18
2017-12-04T20:00:40.818Z,63.28
2017-12-04T20:03:07.250Z,63.75
2017-12-04T20:05:33.618Z,63.81
2017-12-04T20:07:59.950Z,63.33
2017-12-04T20:10:26.454Z,63.82
2017-12-04T20:12:52.887Z,64.33
2017-12-04T20:15:20.038Z,64.80
2017-12-04T20:17:46.477Z,64.31
2017-12-04T20:20:12.842Z,64.63
2017-12-04T20:22:39.241Z,64.39
2017-12-04T20:25:05.676Z,64.21
2017-12-04T20:27:32.009Z,64.03
2017-12-04T20:29:58.376Z,64.08
2017-12-04T20:32:25.696Z,64.28
2017-12-04T20:34:52.030Z,64.34
2017-12-04T20:37:18.463Z,64.48
2017-12-04T20:39:44.900Z,64.85
2017-12-04T20:42:11.314Z,64.33
2017-12-04T20:44:37.662Z,64.99
2017-12-04T20:47:03.997Z,64.20
2017-12-04T20:49:31.454Z,64.58
2017-12-04T20:51:57.888Z,64.12
2017-12-04T20:54:24.331Z,64.53
2017-12-04T20:56:50.758Z,64.65
2017-12-04T20:59:17.125Z,64.51
2017-12-04T21:01:43.500Z,64.56
2017-12-04T21:04:09.958Z,64.89
2017-12-04T21:06:36.942Z,64.27
2017-12-04T21:09:03.340Z,64.58
2017-12-04T21:11:29.774Z,64.42
2017-12-04T21:13:56.210Z,64.86
2017-12-04T21:16:22.644Z,65.59
2017-12-04T21:18:49.078Z,65.43
2017-12-04T21:21:15.532Z,65.60
2017-12-04T21:23:42.650Z,65.68
2017-12-04T21:26:09.098Z,65.35
2017-12-04T21:28:35.634Z,65.03
2017-12-04T21:31:01.951Z,64.99
2017-12-04T21:33:28.299Z,65.54
2017-12-04T21:35:54.753Z,64.90
2017-12-04T21:38:21.132Z,65.22
2017-12-04T21:40:48.321Z,65.37
2017-12-04T21:43:14.755Z,65.06
2017-12-04T21:45:41.189Z,64.96
2017-12-04T21:48:07.624Z,64.69
2017-12-04T21:50:33.958Z,65.25
2017-12-04T21:53:00.494Z,65.29
2017-12-04T21:55:26.963Z,65.03
2017-12-04T21:57:54.182Z,65.01
2017-12-04T22:00:20.616Z,64.78
2017-12-04T22:02:47.058Z,64.85
2017-12-04T22:05:13.485Z,64.46
2017-12-04T22:07:39.920Z,65.13
2017-12-04T22:10:06.251Z,65.01
2017-12-04T22:12:32.686Z,65.12
2017-12-04T22:14:59.123Z,65.40
2017-12-04T22:17:25.453Z,65.26
2017-12-04T22:19:51.888Z,65.53
2017-12-04T22:22:18.254Z,65.35
2017-12-04T22:24:44.658Z,65.65
2017-12-04T22:27:10.985Z,65.38
2017-12-04T22:29:37.354Z,65.18
2017-12-04T22:32:04.492Z,65.79
2017-12-04T22:34:30.838Z,65.65
2017-12-04T22:36:57.231Z,65.76
2017-12-04T22:39:23.673Z,65.18
2017-12-04T22:41:50.209Z,65.68
2017-12-04T22:44:16.643Z,65.69
2017-12-04T22:46:43.078Z,65.74
2017-12-04T22:49:10.332Z,66.04
2017-12-04T22:51:36.769Z,66.29
2017-12-04T22:54:03.137Z,66.35
2017-12-04T22:56:29.472Z,66.54
2017-12-04T22:58:55.865Z,66.71
2017-12-04T23:01:22.197Z,66.59
2017-12-04T23:03:48.633Z,66.91
2017-12-04T23:06:15.784Z,67.36
2017-12-04T23:08:42.218Z,67.29
2017-12-04T23:11:08.653Z,67.28
2017-12-04T23:13:35.089Z,67.56
2017-12-04T23:16:01.427Z,68.04
2017-12-04T23:18:27.853Z,68.46
2017-12-04T23:20:54.289Z,68.72
2017-12-04T23:23:21.527Z,68.74
2017-12-04T23:25:47.874Z,68.20
2017-12-04T23:28:14.308Z,68.50
2017-12-04T23:30:40.799Z,68.53
2017-12-04T23:33:07.179Z,68.05
2017-12-04T23:35:33.612Z,67.72
2017-12-04T23:37:59.981Z,68.26
2017-12-04T23:40:27.290Z,69.21
2017-12-04T23:42:53.735Z,70.04
2017-12-04T23:45:20.107Z,70.51
2017-12-04T23:47:46.605Z,71.06
2017-12-04T23:50:13.041Z,71.38
2017-12-04T23:52:39.476Z,71.15
2017-12-04T23:55:05.805Z,71.24
2017-12-04T23:57:33.061Z,71.51
2017-12-04T23:59:59.495Z,71.40
